Time;durP1;ratioP1;P1;durP2;ratioP2;P2;SDS_P1;SDS_P2;PMS_P1;PMS_P2;Temp;Humidity;BMP_temperature;BMP_pressure;BME280_temperature;BME280_humidity;BME280_pressure;Samples;Min_cycle;Max_cycle;Signal;HPM_P1;HPM_P2
2022/10/20 00:00:10;;;;;;;21.13;14.38;;;10.80;99.90;;;10.89;97.55;101522.44;4897691;29;20418;-75
2022/10/20 00:02:38;;;;;;;18.80;13.75;;;10.70;99.90;;;11.01;97.59;101530.44;4897865;29;20084;-76
2022/10/20 00:05:08;;;;;;;21.65;14.95;;;10.80;99.90;;;11.03;97.59;101525.13;4897344;29;20503;-76
2022/10/20 00:07:36;;;;;;;21.63;14.73;;;10.80;99.90;;;10.99;97.59;101537.47;4897825;29;20487;-75
2022/10/20 00:10:06;;;;;;;20.50;13.60;;;10.80;99.90;;;10.99;97.59;101515.41;4897707;29;20451;-77
2022/10/20 00:12:34;;;;;;;18.98;13.68;;;10.80;99.90;;;10.52;97.62;101434.06;4897636;29;20130;-77
2022/10/20 00:15:05;;;;;;;18.95;14.00;;;10.80;99.90;;;10.93;97.87;101500.41;4897747;29;20047;-76
2022/10/20 00:17:34;;;;;;;20.60;15.30;;;10.80;99.90;;;11.06;97.49;101515.44;4897494;29;20507;-76
2022/10/20 00:20:03;;;;;;;21.42;14.50;;;10.80;99.90;;;11.01;97.71;101497.78;4897523;29;20055;-75
2022/10/20 00:22:32;;;;;;;21.65;14.95;;;10.90;99.90;;;10.98;98.35;101503.03;4896349;29;20053;-76
2022/10/20 00:25:00;;;;;;;21.92;14.80;;;10.80;99.90;;;11.13;97.62;101498.69;4896401;29;20040;-76
2022/10/20 00:27:29;;;;;;;26.05;14.85;;;10.90;99.90;;;10.96;97.89;101502.16;4897430;29;20044;-76
2022/10/20 00:29:57;;;;;;;23.70;15.20;;;10.80;99.90;;;10.49;98.12;101402.28;4896177;29;20041;-77
2022/10/20 00:32:25;;;;;;;23.92;14.48;;;10.80;99.90;;;10.94;98.26;101490.69;4896353;29;20056;-76
2022/10/20 00:34:56;;;;;;;20.50;14.90;;;10.80;99.90;;;10.79;98.35;101454.47;4897433;29;20071;-76
2022/10/20 00:37:24;;;;;;;21.98;15.00;;;10.80;99.90;;;10.82;98.53;101467.69;4897924;29;20143;-76
2022/10/20 00:39:52;;;;;;;23.50;15.55;;;10.80;99.90;;;10.89;99.04;101493.31;4897552;29;20040;-77
2022/10/20 00:42:21;;;;;;;24.05;15.10;;;10.70;99.90;;;10.97;98.63;101503.94;4897393;29;20554;-76
2022/10/20 00:44:55;;;;;;;22.42;15.38;;;10.70;99.90;;;10.95;99.23;101488.06;4897254;29;20514;-77
2022/10/20 00:47:36;;;;;;;27.40;14.60;;;10.70;99.90;;;11.10;98.76;101501.34;4897578;29;20100;-76
2022/10/20 00:50:12;;;;;;;21.00;15.43;;;10.80;99.90;;;11.05;98.14;101503.09;4897640;29;20144;-77
2022/10/20 00:52:43;;;;;;;22.63;15.30;;;10.80;99.90;;;11.01;98.84;101490.72;4897528;29;20486;-76
2022/10/20 00:55:15;;;;;;;26.05;16.10;;;10.80;99.90;;;10.89;98.66;101472.16;4896833;29;20091;-76
2022/10/20 00:57:47;;;;;;;21.77;14.98;;;10.80;99.90;;;11.17;98.27;101491.66;4897474;29;20052;-77
2022/10/20 01:00:17;;;;;;;23.48;15.82;;;10.90;99.90;;;11.10;98.09;101468.69;4897381;29;20577;-75
2022/10/20 01:02:46;;;;;;;24.08;15.20;;;11.00;99.90;;;11.21;97.91;101485.47;4897345;29;20557;-76
2022/10/20 01:05:15;;;;;;;24.10;16.15;;;11.00;99.90;;;11.25;97.66;101477.56;4897529;29;20132;-77
2022/10/20 01:07:44;;;;;;;20.48;15.48;;;11.00;99.90;;;11.18;97.73;101459.88;4897172;29;20044;-76
2022/10/20 01:10:13;;;;;;;22.10;15.90;;;11.00;99.90;;;11.40;97.17;101435.19;4896174;29;20044;-75
2022/10/20 01:12:52;;;;;;;26.23;16.27;;;11.20;99.90;;;11.56;96.44;101442.28;4897216;29;20052;-76
2022/10/20 01:15:30;;;;;;;23.55;15.60;;;11.30;99.90;;;11.59;95.60;101452.00;4897438;29;20513;-76
2022/10/20 01:18:07;;;;;;;22.65;16.33;;;11.40;99.90;;;11.35;95.96;101446.66;4900650;29;20518;-76
2022/10/20 01:21:17;;;;;;;21.77;15.52;;;11.20;99.90;;;11.27;96.01;101390.16;4899543;29;20058;-76
2022/10/20 01:24:30;;;;;;;26.95;16.55;;;11.30;99.90;;;11.56;95.48;101429.03;4898621;29;20102;-76
2022/10/20 01:27:28;;;;;;;24.05;15.73;;;11.40;99.90;;;11.48;95.98;101419.31;4898663;29;20087;-76
2022/10/20 01:30:11;;;;;;;24.50;16.75;;;11.30;99.90;;;11.22;96.46;101443.13;4900561;29;20131;-76
2022/10/20 01:33:08;;;;;;;28.52;16.08;;;11.20;99.90;;;11.11;97.42;101436.03;4900622;29;20060;-76
2022/10/20 01:35:53;;;;;;;23.60;16.08;;;11.00;99.90;;;10.90;98.23;101413.91;4900350;29;20045;-76
2022/10/20 01:38:30;;;;;;;25.05;16.02;;;10.80;99.90;;;11.20;98.03;101421.06;4899097;29;20080;-76
2022/10/20 01:41:08;;;;;;;26.02;17.58;;;11.00;99.90;;;11.31;97.50;101400.75;4900139;29;20056;-76
2022/10/20 01:43:40;;;;;;;27.52;17.80;;;11.10;99.90;;;11.42;96.91;101390.19;4900293;29;20119;-76
2022/10/20 01:46:11;;;;;;;29.98;17.60;;;11.20;99.90;;;11.62;96.39;101384.00;4900521;29;20052;-76
2022/10/20 01:48:40;;;;;;;25.25;17.73;;;11.40;99.90;;;11.47;96.29;101391.06;4900045;29;20047;-76
2022/10/20 01:51:10;;;;;;;25.65;17.67;;;11.30;99.90;;;11.19;96.60;101357.53;4900029;29;20060;-76
2022/10/20 01:53:38;;;;;;;24.80;18.35;;;11.20;99.90;;;11.13;98.00;101379.53;4898702;29;20139;-76
2022/10/20 01:56:14;;;;;;;28.05;18.48;;;11.00;99.90;;;11.13;98.70;101376.03;4900195;29;20064;-76
2022/10/20 01:59:14;;;;;;;29.48;18.13;;;10.90;99.90;;;10.91;99.38;101391.00;4899984;29;20059;-76
2022/10/20 02:02:05;;;;;;;30.73;18.67;;;10.80;99.90;;;10.84;100.00;101342.44;4899830;29;20048;-76
2022/10/20 02:04:54;;;;;;;35.47;19.50;;;10.80;99.90;;;10.95;100.00;101373.34;4899913;29;20044;-76
2022/10/20 02:07:28;;;;;;;27.52;19.08;;;10.80;99.90;;;10.17;100.00;101237.38;4899960;29;20131;-76
2022/10/20 02:10:05;;;;;;;24.92;17.80;;;10.70;99.90;;;10.81;100.00;101366.28;4899717;29;20119;-76
2022/10/20 02:12:39;;;;;;;31.42;19.10;;;10.60;99.90;;;10.84;100.00;101362.72;4899561;29;20053;-76
2022/10/20 02:15:12;;;;;;;27.33;18.73;;;10.60;99.90;;;10.80;100.00;101345.09;4899674;29;20068;-76
2022/10/20 02:17:42;;;;;;;28.23;19.23;;;10.70;99.90;;;10.94;100.00;101335.41;4899665;29;20052;-76
2022/10/20 02:20:11;;;;;;;32.00;19.65;;;10.70;99.90;;;10.74;100.00;101334.50;4899496;29;20048;-75
2022/10/20 02:22:40;;;;;;;30.92;19.55;;;10.60;99.90;;;10.89;100.00;101323.94;4899354;29;20490;-76
2022/10/20 02:25:11;;;;;;;27.70;19.60;;;10.60;99.90;;;10.80;100.00;101310.72;4898327;29;20418;-76
2022/10/20 02:27:45;;;;;;;27.95;20.38;;;10.60;99.90;;;10.79;100.00;101303.63;4899017;29;20488;-76
2022/10/20 02:30:17;;;;;;;30.38;21.00;;;10.60;99.90;;;10.80;100.00;101293.03;4899375;29;20048;-76
2022/10/20 02:32:51;;;;;;;30.42;19.95;;;10.60;99.90;;;10.76;100.00;101291.28;4899481;29;20095;-76
2022/10/20 02:35:23;;;;;;;27.98;20.23;;;10.60;99.90;;;10.80;100.00;101281.59;4899176;29;20040;-76
2022/10/20 02:37:51;;;;;;;31.77;20.10;;;10.60;99.90;;;10.78;100.00;101284.22;4898545;29;20530;-76
2022/10/20 02:40:21;;;;;;;32.05;20.95;;;10.60;99.90;;;10.84;100.00;101278.03;4899077;29;20447;-76
2022/10/20 02:42:49;;;;;;;33.08;21.02;;;10.60;99.90;;;10.76;100.00;101262.16;4899116;29;20400;-76
2022/10/20 02:45:19;;;;;;;31.77;20.65;;;10.60;99.90;;;10.72;100.00;101268.31;4898936;29;20058;-76
2022/10/20 02:47:47;;;;;;;30.40;20.97;;;10.60;99.90;;;10.75;100.00;101278.03;4899013;29;20108;-68
2022/10/20 02:50:16;;;;;;;31.52;20.25;;;10.60;99.90;;;10.80;100.00;101260.44;4899256;29;20041;-69
2022/10/20 02:52:45;;;;;;;33.38;21.35;;;10.60;99.90;;;10.68;100.00;101253.31;4899694;29;20044;-69
2022/10/20 02:55:13;;;;;;;30.73;20.58;;;10.50;99.90;;;10.71;100.00;101260.41;4898868;29;20443;-69
2022/10/20 02:57:41;;;;;;;31.38;22.10;;;10.50;99.90;;;10.63;100.00;101246.28;4899103;29;20048;-69
2022/10/20 03:00:11;;;;;;;34.30;22.40;;;10.50;99.90;;;10.69;100.00;101259.50;4899005;29;20044;-67
2022/10/20 03:02:41;;;;;;;37.05;21.58;;;10.50;99.90;;;10.60;100.00;101248.94;4899082;29;20140;-68
2022/10/20 03:05:09;;;;;;;37.95;22.48;;;10.50;99.90;;;10.68;100.00;101244.53;4899187;29;20435;-68
2022/10/20 03:07:38;;;;;;;31.48;22.05;;;10.50;99.90;;;10.82;100.00;101240.13;4899085;29;20044;-68
2022/10/20 03:10:07;;;;;;;31.80;21.58;;;10.60;99.90;;;10.65;100.00;101218.94;4899123;29;20147;-69
2022/10/20 03:12:36;;;;;;;33.15;22.83;;;10.50;99.90;;;10.73;100.00;101233.06;4899345;29;20394;-68
2022/10/20 03:15:05;;;;;;;33.20;23.17;;;10.50;99.90;;;10.70;100.00;101219.81;4899002;29;20040;-67
2022/10/20 03:17:33;;;;;;;31.17;22.00;;;10.50;99.90;;;10.73;100.00;101221.59;4898729;29;20050;-68
2022/10/20 03:20:05;;;;;;;31.13;23.15;;;10.50;99.90;;;10.76;100.00;101226.91;4897671;29;20486;-69
2022/10/20 03:22:34;;;;;;;34.92;23.52;;;10.50;99.90;;;10.69;100.00;101220.72;4897702;29;20067;-68
2022/10/20 03:25:02;;;;;;;42.25;23.27;;;10.50;99.90;;;10.73;100.00;101225.13;4898602;29;20443;-68
2022/10/20 03:27:30;;;;;;;31.77;22.83;;;10.50;99.90;;;10.84;100.00;101235.69;4898447;29;20045;-68
2022/10/20 03:29:59;;;;;;;33.83;23.23;;;10.60;99.90;;;10.91;100.00;101224.25;4898783;29;20052;-68
2022/10/20 03:32:27;;;;;;;34.45;23.15;;;10.70;99.90;;;10.86;100.00;101229.53;4897555;29;20253;-68
2022/10/20 03:34:55;;;;;;;32.47;23.10;;;10.60;99.90;;;10.80;100.00;101226.88;4899028;29;20036;-69
2022/10/20 03:37:25;;;;;;;34.17;23.23;;;10.60;99.90;;;10.93;100.00;101209.25;4898981;29;20127;-68
2022/10/20 03:39:53;;;;;;;34.35;23.15;;;10.70;99.90;;;10.98;100.00;101210.13;4897544;29;20052;-68
2022/10/20 03:42:21;;;;;;;34.38;23.35;;;10.70;99.90;;;10.90;100.00;101217.19;4898845;29;20056;-67
2022/10/20 03:44:50;;;;;;;35.00;23.45;;;10.70;99.90;;;10.98;100.00;101214.53;4898229;29;20498;-68
2022/10/20 03:47:18;;;;;;;36.55;23.35;;;10.80;99.90;;;10.93;100.00;101217.19;4898136;29;20048;-68
2022/10/20 03:49:46;;;;;;;42.47;24.73;;;10.70;99.90;;;11.03;100.00;101226.03;4898757;29;20044;-68
2022/10/20 03:52:14;;;;;;;41.10;24.17;;;10.80;99.90;;;10.94;100.00;101244.56;4898751;29;20522;-70
2022/10/20 03:54:44;;;;;;;34.00;23.60;;;10.70;99.90;;;10.88;100.00;101238.38;4898238;29;20403;-66
2022/10/20 03:57:12;;;;;;;35.42;24.40;;;10.70;99.90;;;10.93;100.00;101229.53;4898110;29;20040;-69
2022/10/20 03:59:41;;;;;;;33.65;24.00;;;10.70;99.90;;;11.07;100.00;101226.00;4898125;29;20048;-68
2022/10/20 04:02:23;;;;;;;34.40;24.48;;;10.80;99.90;;;11.05;100.00;101214.56;4898320;29;20153;-68
2022/10/20 04:04:52;;;;;;;34.78;23.65;;;10.80;99.90;;;11.13;100.00;101215.41;4898061;29;20041;-68
2022/10/20 04:07:20;;;;;;;43.33;25.23;;;10.90;99.90;;;11.09;100.00;101226.88;4898285;29;20044;-68
2022/10/20 04:09:50;;;;;;;38.25;24.20;;;10.90;99.90;;;11.16;100.00;101211.88;4898207;29;20053;-68
2022/10/20 04:12:18;;;;;;;33.25;24.70;;;10.90;99.90;;;11.22;100.00;101203.94;4897940;29;20528;-68
2022/10/20 04:14:47;;;;;;;35.95;25.05;;;11.00;99.90;;;11.29;100.00;101209.22;4897976;29;20044;-69
2022/10/20 04:17:15;;;;;;;38.22;26.10;;;11.00;99.90;;;11.23;100.00;101211.88;4897933;29;20087;-68
2022/10/20 04:19:43;;;;;;;33.78;25.27;;;11.00;99.90;;;11.36;100.00;101194.19;4898135;29;20053;-70
2022/10/20 04:22:12;;;;;;;39.97;26.23;;;11.10;99.90;;;11.35;100.00;101173.88;4897954;29;20048;-68
2022/10/20 04:24:40;;;;;;;35.70;25.35;;;11.10;99.90;;;11.26;100.00;101161.56;4897894;29;20140;-69
2022/10/20 04:27:10;;;;;;;36.85;24.60;;;11.10;99.90;;;11.22;100.00;101150.97;4896877;29;20055;-68
2022/10/20 04:29:38;;;;;;;35.77;25.97;;;11.00;99.90;;;11.22;100.00;101158.91;4898096;29;20056;-68
2022/10/20 04:32:06;;;;;;;40.78;28.10;;;11.00;99.90;;;11.31;100.00;101159.78;4897847;29;20055;-69
2022/10/20 04:34:35;;;;;;;48.13;27.80;;;11.10;99.90;;;11.31;100.00;101159.78;4898067;29;20049;-68
2022/10/20 04:37:03;;;;;;;44.20;28.15;;;11.10;99.90;;;11.29;100.00;101165.94;4897749;29;20056;-69
2022/10/20 04:39:32;;;;;;;42.70;26.30;;;11.10;99.90;;;11.24;100.00;101179.22;4897796;29;20421;-68
2022/10/20 04:42:00;;;;;;;42.75;28.13;;;11.00;99.90;;;11.34;100.00;101201.25;4897748;29;20041;-68
2022/10/20 04:44:29;;;;;;;38.10;26.35;;;11.10;99.90;;;11.28;100.00;101188.94;4897730;29;20062;-69
2022/10/20 04:46:58;;;;;;;43.33;26.75;;;11.10;99.90;;;11.32;100.00;101197.75;4897623;29;20048;-68
2022/10/20 04:49:26;;;;;;;39.60;26.83;;;11.10;99.90;;;11.28;100.00;101194.22;4897921;29;20041;-69
2022/10/20 04:51:54;;;;;;;42.42;25.88;;;11.10;99.90;;;11.28;100.00;101186.28;4900183;29;20127;-68
2022/10/20 04:54:28;;;;;;;44.03;27.67;;;11.00;99.90;;;11.40;100.00;101196.81;4901264;29;20045;-68
2022/10/20 04:56:56;;;;;;;40.97;27.67;;;11.20;99.90;;;11.49;100.00;101159.72;4901682;29;20060;-67
2022/10/20 04:59:24;;;;;;;40.35;26.73;;;11.20;99.90;;;11.55;100.00;101145.56;4901473;29;20056;-68
2022/10/20 05:01:54;;;;;;;40.35;26.10;;;11.30;99.90;;;11.56;100.00;101123.47;4901410;29;20044;-68
2022/10/20 05:04:23;;;;;;;42.60;29.20;;;11.30;99.90;;;11.47;100.00;101115.56;4901418;29;20096;-68
2022/10/20 05:06:51;;;;;;;42.22;27.65;;;11.30;99.90;;;11.53;100.00;101124.41;4901064;29;20439;-69
2022/10/20 05:09:19;;;;;;;40.03;28.10;;;11.30;99.90;;;11.47;100.00;101127.06;4900964;29;20052;-66
2022/10/20 05:11:47;;;;;;;46.90;27.92;;;11.30;99.90;;;11.54;100.00;101127.91;4901636;29;20048;-68
2022/10/20 05:14:16;;;;;;;47.30;28.30;;;11.30;99.90;;;11.45;100.00;101122.66;4899925;29;20432;-69
2022/10/20 05:16:44;;;;;;;39.97;28.42;;;11.20;99.90;;;11.53;100.00;101123.50;4901196;29;20048;-69
2022/10/20 05:19:13;;;;;;;46.92;28.42;;;11.30;99.90;;;11.39;100.00;101094.44;4900898;29;20053;-68
2022/10/20 05:21:42;;;;;;;44.28;29.38;;;11.30;99.90;;;11.45;100.00;101098.81;4901065;29;20044;-68
2022/10/20 05:24:14;;;;;;;43.42;29.17;;;11.30;99.90;;;11.40;100.00;101088.22;4900745;29;20041;-68
2022/10/20 05:26:48;;;;;;;48.17;29.50;;;11.30;99.90;;;11.64;100.00;101106.66;4900811;29;20142;-68
2022/10/20 05:29:17;;;;;;;39.55;27.27;;;11.40;99.90;;;11.55;100.00;101112.03;4900913;29;20048;-67
2022/10/20 05:31:45;;;;;;;44.17;27.95;;;11.30;99.90;;;11.54;100.00;101098.75;4900590;29;20083;-69
2022/10/20 05:34:15;;;;;;;41.50;28.45;;;11.30;99.90;;;11.59;100.00;101091.69;4900880;29;20044;-70
2022/10/20 05:36:43;;;;;;;45.15;29.65;;;11.30;99.90;;;11.63;100.00;101083.69;4900540;29;20414;-68
2022/10/20 05:39:11;;;;;;;40.47;29.25;;;11.40;99.90;;;11.58;100.00;101072.25;4900730;29;20518;-69
2022/10/20 05:41:40;;;;;;;37.90;28.05;;;11.40;99.90;;;11.59;100.00;101081.09;4900600;29;20359;-69
2022/10/20 05:44:11;;;;;;;49.92;29.73;;;11.40;99.90;;;11.58;100.00;101079.31;4900430;29;20075;-68
2022/10/20 05:46:41;;;;;;;45.67;30.05;;;11.40;99.90;;;11.57;100.00;101065.22;4900322;29;20070;-68
2022/10/20 05:49:15;;;;;;;38.63;28.60;;;11.40;99.90;;;11.53;100.00;101079.34;4900173;29;20052;-70
2022/10/20 05:51:45;;;;;;;45.10;29.73;;;11.30;99.90;;;11.63;100.00;101077.53;4900288;29;20096;-68
2022/10/20 05:54:14;;;;;;;45.47;29.35;;;11.40;99.90;;;11.64;100.00;101076.63;4900561;29;20063;-68
2022/10/20 05:56:43;;;;;;;46.20;28.23;;;11.40;99.90;;;11.47;100.00;101086.44;4900473;29;20056;-69
2022/10/20 05:59:11;;;;;;;42.58;28.40;;;11.30;99.90;;;11.47;100.00;101081.16;4900121;29;20048;-68
2022/10/20 06:01:46;;;;;;;44.28;29.63;;;11.20;99.90;;;11.48;100.00;101072.28;4900143;29;20053;-68
2022/10/20 06:04:22;;;;;;;46.42;28.52;;;11.20;99.90;;;11.50;100.00;101078.47;4899910;29;20048;-68
2022/10/20 06:06:51;;;;;;;43.25;29.45;;;11.30;99.90;;;11.51;100.00;101080.25;4900112;29;20102;-68
2022/10/20 06:09:21;;;;;;;43.03;29.23;;;11.30;99.90;;;11.47;100.00;101071.44;4899840;29;20049;-68
2022/10/20 06:11:50;;;;;;;43.10;28.67;;;11.30;99.90;;;11.52;100.00;101080.22;4900288;29;20059;-71
2022/10/20 06:14:21;;;;;;;44.95;28.83;;;11.30;99.90;;;11.50;100.00;101066.09;4900162;29;20301;-72
2022/10/20 06:16:51;;;;;;;46.13;30.90;;;11.30;99.90;;;11.61;100.00;101052.81;4899893;29;20459;-71
2022/10/20 06:19:21;;;;;;;42.53;28.90;;;11.30;99.90;;;11.60;100.00;101073.13;4900080;29;20056;-68
2022/10/20 06:21:50;;;;;;;47.63;29.08;;;11.40;99.90;;;11.51;100.00;101070.53;4900273;29;20045;-69
2022/10/20 06:24:19;;;;;;;41.90;29.00;;;11.30;99.90;;;11.60;100.00;101065.19;4899623;29;20171;-69
2022/10/20 06:26:47;;;;;;;44.92;30.77;;;11.30;99.90;;;11.60;100.00;101066.94;4899890;29;20458;-68
2022/10/20 06:29:18;;;;;;;45.80;28.73;;;11.40;99.90;;;11.63;100.00;101075.75;4900076;29;20037;-70
2022/10/20 06:31:49;;;;;;;40.63;28.80;;;11.40;99.90;;;11.55;100.00;101090.84;4899526;29;20053;-70
2022/10/20 06:34:21;;;;;;;45.92;29.52;;;11.40;99.90;;;11.55;100.00;101101.44;4900009;29;20570;-71
2022/10/20 06:36:50;;;;;;;46.70;30.38;;;11.30;99.90;;;11.56;100.00;101076.69;4899756;29;20048;-71
2022/10/20 06:39:21;;;;;;;43.08;30.17;;;11.30;99.90;;;11.66;100.00;101073.13;4900118;29;20047;-69
2022/10/20 06:41:52;;;;;;;46.70;29.50;;;11.40;99.90;;;11.81;100.00;101060.69;4899305;29;20061;-69
2022/10/20 06:44:23;;;;;;;41.78;27.77;;;11.50;99.90;;;11.75;100.00;101064.22;4899680;29;20063;-70
2022/10/20 06:46:52;;;;;;;46.10;30.00;;;11.50;99.90;;;11.78;100.00;101057.16;4899359;29;20479;-72
2022/10/20 06:49:22;;;;;;;40.58;28.95;;;11.50;99.90;;;11.82;100.00;101065.97;4899392;29;20052;-71
2022/10/20 06:51:50;;;;;;;40.27;28.70;;;11.60;99.90;;;11.86;100.00;101057.13;4899414;29;20103;-69
2022/10/20 06:54:19;;;;;;;43.80;30.20;;;11.60;99.90;;;12.09;100.00;101059.59;4899100;29;20307;-69
2022/10/20 06:56:47;;;;;;;44.97;29.35;;;11.70;99.90;;;11.97;100.00;101057.91;4899308;29;20509;-72
2022/10/20 06:59:15;;;;;;;42.55;28.55;;;11.70;99.90;;;12.01;100.00;101048.16;4899141;29;20491;-67
2022/10/20 07:01:43;;;;;;;42.75;28.63;;;11.70;99.90;;;12.02;100.00;101047.28;4899337;29;20049;-68
2022/10/20 07:04:15;;;;;;;43.33;28.20;;;11.70;99.90;;;12.06;100.00;101046.38;4899205;29;20108;-71
2022/10/20 07:06:46;;;;;;;37.65;27.55;;;11.80;99.90;;;11.93;100.00;101032.31;4899091;29;20078;-67
2022/10/20 07:09:18;;;;;;;40.08;28.33;;;11.80;99.90;;;11.98;100.00;101056.16;4899097;29;20058;-66
2022/10/20 07:11:50;;;;;;;41.20;26.83;;;11.80;99.90;;;11.99;100.00;101044.63;4898907;29;20049;-69
2022/10/20 07:14:19;;;;;;;45.28;27.98;;;11.70;99.90;;;12.01;100.00;101050.81;4898687;29;20134;-68
2022/10/20 07:16:47;;;;;;;41.05;28.20;;;11.70;99.90;;;12.01;100.00;101043.75;4898649;29;20052;-68
2022/10/20 07:19:16;;;;;;;42.60;28.92;;;11.80;99.90;;;12.03;100.00;101038.44;4898631;29;20083;-68
2022/10/20 07:21:46;;;;;;;44.25;28.73;;;11.70;99.90;;;11.95;100.00;101045.56;4898609;29;20100;-70
2022/10/20 07:24:15;;;;;;;43.35;27.77;;;11.70;99.90;;;11.77;100.00;101002.38;4899039;29;20443;-69
2022/10/20 07:26:44;;;;;;;40.20;28.73;;;11.80;99.90;;;12.13;100.00;101037.47;4898540;29;20055;-69
2022/10/20 07:29:13;;;;;;;40.67;29.10;;;11.80;99.90;;;12.04;100.00;101048.16;4898746;29;20048;-68
2022/10/20 07:31:44;;;;;;;39.25;28.15;;;11.80;99.90;;;12.04;100.00;101032.25;4898793;29;20132;-69
2022/10/20 07:34:16;;;;;;;43.58;28.77;;;11.80;99.90;;;12.14;100.00;101034.78;4898262;29;20048;-69
2022/10/20 07:36:57;;;;;;;38.78;28.17;;;11.90;99.90;;;12.11;100.00;101045.44;4897398;29;20456;-68
2022/10/20 07:39:27;;;;;;;44.40;29.58;;;11.90;99.90;;;12.08;100.00;101039.28;4898403;29;20045;-68
2022/10/20 07:41:56;;;;;;;39.13;28.38;;;11.80;99.90;;;12.03;100.00;101041.97;4898373;29;20052;-68
2022/10/20 07:44:24;;;;;;;45.67;28.67;;;11.80;99.90;;;12.11;100.00;101045.44;4897361;29;20044;-68
2022/10/20 07:46:52;;;;;;;41.58;28.10;;;11.90;99.90;;;12.12;100.00;101046.28;4898793;29;20051;-71
2022/10/20 07:49:20;;;;;;;38.17;27.83;;;11.90;99.90;;;12.11;100.00;101055.16;4898240;29;20422;-69
2022/10/20 07:52:11;;;;;;;42.80;29.33;;;11.90;99.90;;;12.17;100.00;101060.41;4898090;29;20047;-67
2022/10/20 07:54:39;;;;;;;45.60;28.92;;;11.90;99.90;;;12.19;100.00;101061.28;4897986;29;20407;-70
2022/10/20 07:57:07;;;;;;;44.88;29.23;;;11.90;99.90;;;12.23;100.00;101050.63;4898151;29;20049;-67
2022/10/20 07:59:36;;;;;;;41.38;28.23;;;12.00;99.90;;;12.36;100.00;101062.03;4898284;29;20052;-67
2022/10/20 08:02:04;;;;;;;40.78;29.10;;;12.00;99.90;;;12.47;100.00;101058.38;4897995;29;20044;-67
2022/10/20 08:04:33;;;;;;;38.58;27.60;;;12.20;99.90;;;12.67;100.00;101066.16;4898066;29;20045;-67
2022/10/20 08:07:01;;;;;;;41.95;30.00;;;12.40;99.90;;;12.75;100.00;101061.66;4898214;29;20044;-67
2022/10/20 08:09:31;;;;;;;41.78;27.42;;;12.50;99.90;;;12.84;100.00;101050.03;4897943;29;20040;-68
2022/10/20 08:12:01;;;;;;;39.17;27.20;;;12.60;99.90;;;12.94;100.00;101049.06;4898092;29;20076;-67
2022/10/20 08:14:32;;;;;;;40.30;26.70;;;12.70;99.90;;;12.88;100.00;101038.50;4897944;29;20479;-68
2022/10/20 08:17:00;;;;;;;44.05;26.63;;;12.70;99.90;;;12.95;100.00;101049.03;4898122;29;20441;-67
2022/10/20 08:19:32;;;;;;;42.03;25.67;;;12.70;99.90;;;13.13;100.00;101045.31;4898165;29;20041;-68
2022/10/20 08:22:07;;;;;;;40.38;26.45;;;12.80;99.90;;;13.11;100.00;101040.03;4897949;29;20049;-68
2022/10/20 08:24:37;;;;;;;38.22;25.33;;;12.90;99.90;;;13.11;100.00;101041.81;4898364;29;20045;-68
2022/10/20 08:27:05;;;;;;;34.83;25.88;;;12.90;99.90;;;13.07;100.00;101042.72;4899908;29;20524;-68
2022/10/20 08:29:33;;;;;;;42.13;26.92;;;12.80;99.90;;;13.09;100.00;101040.94;4900680;29;20052;-71
2022/10/20 08:32:02;;;;;;;34.42;26.52;;;12.80;99.90;;;13.07;100.00;101005.56;4901518;29;20495;-68
2022/10/20 08:34:30;;;;;;;37.20;25.75;;;12.90;99.90;;;13.12;100.00;101020.56;4901642;29;20048;-69
2022/10/20 08:36:59;;;;;;;37.53;26.98;;;12.90;99.90;;;13.37;100.00;101019.34;4901772;29;20051;-68
2022/10/20 08:39:28;;;;;;;36.67;25.73;;;13.10;99.90;;;13.22;100.00;101008.91;4901764;29;20041;-68
2022/10/20 08:41:58;;;;;;;36.88;25.60;;;13.10;99.90;;;13.22;100.00;101011.56;4900491;29;20406;-68
2022/10/20 08:44:40;;;;;;;41.90;26.15;;;13.10;99.90;;;13.55;100.00;101015.53;4901996;29;20048;-70
2022/10/20 08:47:24;;;;;;;35.95;25.58;;;13.20;99.90;;;13.52;100.00;101012.94;4901666;29;20135;-69
2022/10/20 08:49:59;;;;;;;;;;;13.20;99.90;;;13.37;100.00;100999.88;4902019;29;20127;-74
2022/10/20 08:52:28;;;;;;;38.67;25.95;;;13.30;99.90;;;13.57;100.00;101019.03;4901601;29;19923;-70
2022/10/20 08:54:57;;;;;;;37.28;26.25;;;13.30;99.90;;;13.63;100.00;101002.16;4901326;29;20523;-70
2022/10/20 08:57:31;;;;;;;39.58;25.45;;;13.40;99.90;;;13.74;100.00;101002.88;4901306;29;20044;-69
2022/10/20 09:00:17;;;;;;;35.15;27.25;;;13.50;99.90;;;14.00;100.00;101016.63;4901301;29;20055;-69
2022/10/20 09:02:46;;;;;;;34.78;25.98;;;13.70;99.90;;;13.94;100.00;101024.69;4901496;29;20047;-69
2022/10/20 09:05:17;;;;;;;43.10;27.70;;;13.70;99.90;;;14.03;100.00;101016.59;4901141;29;20127;-68
2022/10/20 09:07:48;;;;;;;35.83;26.40;;;13.80;99.90;;;14.04;100.00;101015.66;4901088;29;20485;-68
2022/10/20 09:10:32;;;;;;;36.08;26.52;;;13.80;99.90;;;14.03;100.00;100984.66;4901532;29;20052;-69
2022/10/20 09:13:05;;;;;;;36.50;25.13;;;13.80;99.90;;;14.25;100.00;101000.22;4901582;29;20060;-68
2022/10/20 09:15:34;;;;;;;35.67;26.80;;;14.00;99.90;;;14.21;100.00;100997.63;4901316;29;20077;-68
2022/10/20 09:18:08;;;;;;;38.72;25.73;;;14.00;99.90;;;14.14;100.00;100986.25;4901178;29;20044;-69
2022/10/20 09:20:43;;;;;;;41.92;26.92;;;13.90;99.90;;;14.19;100.00;100978.16;4901500;29;20052;-69
2022/10/20 09:23:14;;;;;;;34.13;24.95;;;13.90;99.90;;;14.36;100.00;100976.16;4901121;29;20505;-68
2022/10/20 09:26:02;;;;;;;;;;;14.00;99.90;;;14.28;100.00;100972.75;4901210;29;20104;-68
2022/10/20 09:28:31;;;;;;;33.35;24.45;;;14.00;99.90;;;14.40;100.00;100973.38;4900723;29;19923;-68
2022/10/20 09:31:31;;;;;;;31.48;24.80;;;14.10;99.90;;;14.49;100.00;100969.69;4900923;29;20048;-69
2022/10/20 09:33:59;;;;;;;38.20;24.90;;;14.20;99.90;;;14.33;100.00;100985.06;4901233;29;20048;-69
2022/10/20 09:36:31;;;;;;;32.58;25.98;;;14.10;99.90;;;14.39;100.00;100960.09;4900543;29;20049;-68
2022/10/20 09:39:00;;;;;;;36.78;25.13;;;14.20;99.90;;;14.40;100.00;100986.69;4899995;29;20127;-69
2022/10/20 09:41:31;;;;;;;40.35;26.38;;;14.10;99.90;;;14.43;100.00;101002.63;4900503;29;20048;-69
2022/10/20 09:44:06;;;;;;;36.53;26.45;;;14.20;99.90;;;14.45;100.00;101005.25;4900472;29;20051;-68
2022/10/20 09:46:43;;;;;;;32.72;24.13;;;14.20;99.90;;;14.43;100.00;101012.38;4900644;29;20037;-68
2022/10/20 09:49:25;;;;;;;39.15;25.48;;;14.20;99.90;;;14.53;100.00;100999.78;4900432;29;20391;-68
2022/10/20 09:51:53;;;;;;;32.63;24.05;;;14.30;99.90;;;14.45;100.00;100971.53;4900670;29;20045;-67
2022/10/20 09:54:25;;;;;;;34.03;24.77;;;14.20;99.90;;;14.48;100.00;100964.41;4900376;29;20421;-68
2022/10/20 09:56:54;;;;;;;35.08;24.42;;;14.20;99.90;;;14.59;100.00;100979.25;4900591;29;20137;-66
2022/10/20 09:59:35;;;;;;;32.40;25.15;;;14.30;99.90;;;14.59;100.00;100975.72;4900148;29;20056;-70
2022/10/20 10:02:27;;;;;;;37.63;25.15;;;14.30;99.90;;;14.78;100.00;100982.44;4900195;29;20123;-65
2022/10/20 10:05:13;;;;;;;31.83;23.77;;;14.50;99.90;;;14.69;100.00;100969.31;4900055;29;20140;-66
2022/10/20 10:07:42;;;;;;;32.30;23.85;;;14.50;99.90;;;14.82;100.00;100971.69;4900058;29;20067;-66
2022/10/20 10:10:27;;;;;;;33.13;24.77;;;14.60;99.90;;;14.77;100.00;100940.75;4899927;29;20043;-66
2022/10/20 10:12:59;;;;;;;37.15;24.75;;;14.50;99.90;;;14.65;100.00;100944.53;4899957;29;20115;-66